M I D A S
Marine Information and Data Acquisition System
Tripno 1449 of the Zeeleeuw from 2008-04-01 04:05:47 to 2008-04-01 08:47:36
Back to CruiseResearch ActivitiesStationsMapUnderway DataData graphs

EquipmentUnitsComment
TimeDGPSUTC
LatitudeDGPSDM.mWGS84
LongitudeDGPSDM.mWGS84
HeadingGyrodeg 
SOGDGPSknotsSpeed over ground
COGDGPSdegCourse over ground
DepthEcho soundermeters200 kHz
Missing or incorrect values are displayed as -999
Navigation data collected by the RV Zeeleeuw from 2008-04-01 03:59:59 to 2008-04-01 08:56:44
                                                                                    Next 1000 lines
Time Latitude Longitude Heading SOG COG Depth
2008-04-01 04:00:09 51°13.643 2°55.998 123.2 -999 181 6.7
2008-04-01 04:00:13 51°13.644 2°55.998 123.1 -999 277 6.8
2008-04-01 04:00:18 51°13.644 2°55.998 123.1 -999 308 -999
2008-04-01 04:00:24 51°13.645 2°55.998 123.1 -999 236 6.8
2008-04-01 04:00:28 51°13.645 2°55.998 123 0.1 294 6.7
2008-04-01 04:00:35 51°13.645 2°55.998 122.9 -999 306 6.8
2008-04-01 04:00:39 51°13.644 2°55.998 122.9 -999 142 6.8
2008-04-01 04:00:44 51°13.644 2°55.998 122.9 0.1 191 6.8
2008-04-01 04:00:49 51°13.643 2°55.998 122.9 0.1 176 6.8
2008-04-01 04:00:54 51°13.643 2°55.998 122.9 0.2 179 6.8
2008-04-01 04:00:59 51°13.643 2°55.998 122.9 0.1 173 -999
2008-04-01 04:01:04 51°13.644 2°55.998 122.9 -999 129 6.7
2008-04-01 04:01:09 51°13.645 2°55.999 122.9 -999 121 6.7
2008-04-01 04:01:14 51°13.645 2°55.999 122.9 0.1 136 6.7
2008-04-01 04:01:19 51°13.646 2°55.999 123 -999 117 6.7
2008-04-01 04:01:23 51°13.645 2°55.999 123.2 -999 150 6.8
2008-04-01 04:01:28 51°13.645 2°55.999 123.4 -999 98 6.7
2008-04-01 04:01:35 51°13.644 2°55.999 123.7 0.1 158 6.8
2008-04-01 04:01:40 51°13.643 2°55.999 124 0.1 176 6.8
2008-04-01 04:01:43 51°13.643 2°55.999 124.2 0.1 174 6.8
2008-04-01 04:01:48 51°13.643 2°55.999 124.4 0.2 182 6.8
2008-04-01 04:01:54 51°13.643 2°55.999 124.6 0.1 162 6.7
2008-04-01 04:01:59 51°13.643 2°55.999 124.7 0.1 170 6.8
2008-04-01 04:02:03 51°13.643 2°55.999 124.7 -999 145 6.7
2008-04-01 04:02:08 51°13.643 2°55.999 124.7 -999 186 6.8
2008-04-01 04:02:14 51°13.644 2°55.999 124.7 -999 207 6.8
2008-04-01 04:02:19 51°13.645 2°55.999 124.7 -999 349 6.8
2008-04-01 04:02:23 51°13.646 2°55.999 124.7 -999 267 6.7
2008-04-01 04:02:28 51°13.646 2°55.999 124.7 -999 314 6.8
2008-04-01 04:02:33 51°13.645 2°55.999 124.8 -999 138 6.7
2008-04-01 04:02:39 51°13.644 2°55.998 124.9 -999 196 6.8
2008-04-01 04:02:44 51°13.644 2°55.998 124.9 0.1 183 6.8
2008-04-01 04:02:48 51°13.644 2°55.998 124.9 0.1 173 6.8
2008-04-01 04:02:54 51°13.643 2°55.998 124.9 0.1 169 6.8
2008-04-01 04:02:59 51°13.643 2°55.998 124.9 -999 189 6.8
2008-04-01 04:03:04 51°13.643 2°55.998 124.9 0.1 196 6.8
2008-04-01 04:03:09 51°13.642 2°55.998 124.9 0.1 174 6.8
2008-04-01 04:03:13 51°13.642 2°55.998 125 0.2 166 6.8
2008-04-01 04:03:19 51°13.641 2°55.998 125 0.2 172 6.8
2008-04-01 04:03:23 51°13.642 2°55.998 125.1 0.1 182 6.7
2008-04-01 04:03:29 51°13.643 2°55.998 125.1 -999 233 6.7
2008-04-01 04:03:34 51°13.643 2°55.998 125.1 -999 158 6.7
2008-04-01 04:03:39 51°13.644 2°55.998 125.2 -999 254 6.8
2008-04-01 04:03:43 51°13.644 2°55.998 125.2 -999 279 6.7
2008-04-01 04:03:48 51°13.644 2°55.998 125.2 0.1 172 6.8
2008-04-01 04:03:54 51°13.643 2°55.998 125.2 -999 283 6.7
2008-04-01 04:03:59 51°13.643 2°55.998 125.2 -999 112 6.7
2008-04-01 04:04:03 51°13.643 2°55.998 125.2 -999 314 6.7
2008-04-01 04:04:08 51°13.643 2°55.998 125.2 -999 204 6.8
2008-04-01 04:04:13 51°13.643 2°55.998 125.2 -999 298 6.7
2008-04-01 04:04:19 51°13.644 2°55.998 125.2 -999 158 6.7
2008-04-01 04:04:24 51°13.644 2°55.998 125.2 0.1 171 6.7
2008-04-01 04:04:28 51°13.644 2°55.998 125.4 0.2 176 6.8
2008-04-01 04:04:34 51°13.644 2°55.998 125.5 0.2 187 6.8
2008-04-01 04:04:39 51°13.644 2°55.998 125.5 -999 226 6.8
2008-04-01 04:04:43 51°13.643 2°55.998 125.6 0.1 172 6.8
2008-04-01 04:04:48 51°13.643 2°55.998 125.8 -999 161 6.7
2008-04-01 04:04:53 51°13.644 2°55.998 125.8 0.1 172 6.8
2008-04-01 04:04:59 51°13.644 2°55.998 125.8 0.1 167 6.7
2008-04-01 04:05:04 51°13.644 2°55.998 125.9 -999 162 6.7
2008-04-01 04:05:08 51°13.644 2°55.998 125.9 0.1 144 6.7
2008-04-01 04:05:14 51°13.644 2°55.998 125.9 0.1 131 6.7
2008-04-01 04:05:19 51°13.645 2°55.998 125.6 -999 320 6.8
2008-04-01 04:05:23 51°13.645 2°55.998 125 -999 113 6.8
2008-04-01 04:05:28 51°13.645 2°55.998 124.3 -999 185 6.8
2008-04-01 04:05:34 51°13.645 2°55.998 123.7 0.1 216 6.9
2008-04-01 04:05:39 51°13.644 2°55.998 123.3 -999 200 6.8
2008-04-01 04:05:43 51°13.644 2°55.998 122.8 -999 163 6.7
2008-04-01 04:05:48 51°13.644 2°55.998 122.2 -999 210 6.8
2008-04-01 04:05:54 51°13.644 2°55.998 121.7 0.1 217 6.8
2008-04-01 04:05:59 51°13.645 2°55.998 121 0.1 186 6.8
2008-04-01 04:06:03 51°13.645 2°55.998 120.4 0.1 184 6.8
2008-04-01 04:06:09 51°13.644 2°55.998 119.7 0.1 171 6.8
2008-04-01 04:06:14 51°13.644 2°55.998 119 0.1 163 6.8
2008-04-01 04:06:19 51°13.644 2°55.998 118.4 0.1 192 6.8
2008-04-01 04:06:24 51°13.644 2°55.998 117.8 0.1 191 6.8
2008-04-01 04:06:28 51°13.644 2°55.998 117.2 0.1 186 6.8
2008-04-01 04:06:33 51°13.644 2°55.998 116.6 0.1 185 6.8
2008-04-01 04:06:40 51°13.644 2°55.998 116 0.1 187 6.8
2008-04-01 04:06:43 51°13.644 2°55.998 115.3 0.1 187 6.8
2008-04-01 04:06:48 51°13.644 2°55.998 114.4 0.1 192 6.8
2008-04-01 04:06:54 51°13.644 2°55.998 113.5 0.1 200 6.8
2008-04-01 04:06:59 51°13.644 2°55.998 112.4 0.1 265 6.8
2008-04-01 04:07:04 51°13.644 2°55.997 111.6 0.2 285 6.9
2008-04-01 04:07:08 51°13.644 2°55.996 111 0.3 289 6.9
2008-04-01 04:07:14 51°13.645 2°55.995 110.6 0.6 293 6.8
2008-04-01 04:07:19 51°13.645 2°55.993 110.4 0.9 294 6.8
2008-04-01 04:07:24 51°13.646 2°55.99 110.3 1.3 295 6.8
2008-04-01 04:07:28 51°13.647 2°55.987 110.4 1.7 295 6.8
2008-04-01 04:07:34 51°13.649 2°55.983 110.7 2 295 6.7
2008-04-01 04:07:39 51°13.65 2°55.978 111 2.3 296 -999
2008-04-01 04:07:43 51°13.651 2°55.974 111.1 2.5 295 -999
2008-04-01 04:07:50 51°13.654 2°55.966 111.1 2.7 294 -999
2008-04-01 04:07:55 51°13.655 2°55.96 111 3 294 -999
2008-04-01 04:08:00 51°13.657 2°55.953 111 3.2 294 -999
2008-04-01 04:08:04 51°13.658 2°55.948 111 3.3 294 -999
2008-04-01 04:08:09 51°13.66 2°55.941 111 3.5 293 -999
2008-04-01 04:08:14 51°13.662 2°55.933 110.6 3.7 292 -999
2008-04-01 04:08:19 51°13.664 2°55.925 110.2 3.8 292 -999
2008-04-01 04:08:24 51°13.666 2°55.917 109.9 3.9 291 -999
2008-04-01 04:08:29 51°13.668 2°55.909 109.5 4 290 -999
2008-04-01 04:08:34 51°13.67 2°55.901 109.3 4.1 290 -999
2008-04-01 04:08:39 51°13.671 2°55.892 109.2 4.1 290 -999
2008-04-01 04:08:44 51°13.673 2°55.883 109.2 4.2 290 -999
2008-04-01 04:08:49 51°13.675 2°55.875 109.2 4.2 290 -999
2008-04-01 04:08:54 51°13.677 2°55.866 109 3.2 290 -999
2008-04-01 04:09:00 51°13.68 2°55.856 108.6 4.1 289 -999
2008-04-01 04:09:04 51°13.681 2°55.849 108.4 4.2 291 -999
2008-04-01 04:09:09 51°13.683 2°55.84 108 4.2 290 -999
2008-04-01 04:09:14 51°13.685 2°55.832 107.5 4.1 290 -999
2008-04-01 04:09:19 51°13.687 2°55.824 106.9 3.9 290 -999
2008-04-01 04:09:24 51°13.689 2°55.816 106.4 3.8 290 -999
2008-04-01 04:09:29 51°13.691 2°55.808 105.4 3.6 289 -999
2008-04-01 04:09:35 51°13.692 2°55.8 104.3 3.5 289 -999
2008-04-01 04:09:40 51°13.694 2°55.793 103.1 3.4 288 -999
2008-04-01 04:09:44 51°13.695 2°55.787 102.2 3.3 287 10.1
2008-04-01 04:09:49 51°13.696 2°55.78 101.2 3.2 286 -999
2008-04-01 04:09:54 51°13.698 2°55.773 100.1 3.2 285 -999
2008-04-01 04:09:59 51°13.698 2°55.767 98.4 3 284 12.2
2008-04-01 04:10:03 51°13.699 2°55.762 97.1 2.9 284 12.8
2008-04-01 04:10:09 51°13.7 2°55.755 95.8 2.8 282 13.4
2008-04-01 04:10:14 51°13.701 2°55.749 94.3 2.7 281 -999
2008-04-01 04:10:19 51°13.701 2°55.743 92.8 2.6 280 13.1
2008-04-01 04:10:23 51°13.701 2°55.739 91.8 2.4 279 12.9
2008-04-01 04:10:28 51°13.702 2°55.734 90.6 2.3 279 12.7
2008-04-01 04:10:34 51°13.703 2°55.728 89 2.1 278 12.6
2008-04-01 04:10:39 51°13.703 2°55.724 87.3 1.9 278 13
2008-04-01 04:10:43 51°13.703 2°55.721 85.8 1.8 278 13.4
2008-04-01 04:10:48 51°13.704 2°55.718 84.4 1.6 277 14.2
2008-04-01 04:10:54 51°13.704 2°55.714 82.7 1.4 279 14.7
2008-04-01 04:10:59 51°13.704 2°55.712 80.7 1 283 14.9
2008-04-01 04:11:03 51°13.704 2°55.711 78.2 0.8 287 15
2008-04-01 04:11:10 51°13.705 2°55.709 75.4 0.5 292 -999
2008-04-01 04:11:14 51°13.705 2°55.709 71.1 0.5 314 -999
2008-04-01 04:11:19 51°13.706 2°55.709 67.4 0.4 346 -999
2008-04-01 04:11:24 51°13.706 2°55.709 63.9 0.5 -999 14
2008-04-01 04:11:28 51°13.707 2°55.709 61.7 0.6 18 12.8
2008-04-01 04:11:34 51°13.708 2°55.71 58.7 0.7 28 12.3
2008-04-01 04:11:39 51°13.709 2°55.71 55.6 0.8 29 12
2008-04-01 04:11:44 51°13.711 2°55.711 50.7 1 23 11.7
2008-04-01 04:11:48 51°13.712 2°55.712 46.4 1.1 24 11.5
2008-04-01 04:11:54 51°13.714 2°55.714 42 1.2 22 11.6
2008-04-01 04:11:59 51°13.715 2°55.715 38.4 1.4 22 11.5
2008-04-01 04:12:04 51°13.718 2°55.716 33 1.5 17 11.5
2008-04-01 04:12:08 51°13.719 2°55.716 28.3 1.6 13 11.4
2008-04-01 04:12:14 51°13.722 2°55.717 23.7 1.7 10 -999
2008-04-01 04:12:19 51°13.725 2°55.718 19.1 1.8 6 11.2
2008-04-01 04:12:23 51°13.726 2°55.718 14.9 1.9 4 10.7
2008-04-01 04:12:29 51°13.73 2°55.718 10.6 2 -999 10.9
2008-04-01 04:12:34 51°13.733 2°55.717 6.3 2.1 355 10.9
2008-04-01 04:12:39 51°13.736 2°55.716 2.8 2.5 352 11
2008-04-01 04:12:43 51°13.739 2°55.715 356.9 2.8 347 10.5
2008-04-01 04:12:50 51°13.744 2°55.712 350.2 2.7 341 10.7
2008-04-01 04:12:54 51°13.747 2°55.71 343.9 2.7 338 10.4
2008-04-01 04:12:59 51°13.75 2°55.708 339.5 2.7 335 10.4
2008-04-01 04:13:03 51°13.753 2°55.705 336.3 2.8 332 10.4
2008-04-01 04:13:08 51°13.757 2°55.702 333.8 2.8 331 10.3
2008-04-01 04:13:14 51°13.761 2°55.698 332 2.9 330 10.3
2008-04-01 04:13:19 51°13.764 2°55.695 330.7 3.1 328 10.2
2008-04-01 04:13:24 51°13.768 2°55.691 330 3.2 328 10.2
2008-04-01 04:13:29 51°13.772 2°55.687 329.5 3.2 328 10.2
2008-04-01 04:13:34 51°13.776 2°55.683 329.4 3.3 328 10.2
2008-04-01 04:13:39 51°13.78 2°55.68 329.6 3.4 328 10.2
2008-04-01 04:13:43 51°13.783 2°55.677 330.1 3.4 329 10.1
2008-04-01 04:13:49 51°13.788 2°55.672 330.6 3.5 330 10.1
2008-04-01 04:13:54 51°13.793 2°55.668 331.6 3.6 331 -999
2008-04-01 04:13:59 51°13.797 2°55.664 332.4 3.7 332 -999
2008-04-01 04:14:04 51°13.802 2°55.661 333.1 3.7 333 -999
2008-04-01 04:14:08 51°13.805 2°55.658 333.9 3.8 334 9.9
2008-04-01 04:14:14 51°13.811 2°55.653 334.6 3.8 335 10
2008-04-01 04:14:19 51°13.816 2°55.649 335.2 3.9 335 9.7
2008-04-01 04:14:23 51°13.82 2°55.646 335.6 3.9 335 9.9
2008-04-01 04:14:28 51°13.825 2°55.643 335.9 4 335 9.9
2008-04-01 04:14:34 51°13.831 2°55.639 335.9 4 336 9.8
2008-04-01 04:14:39 51°13.836 2°55.635 336 4.1 336 9.9
2008-04-01 04:14:43 51°13.84 2°55.632 336 4.2 336 10.1
2008-04-01 04:14:49 51°13.847 2°55.627 336.1 4.3 335 9.9
2008-04-01 04:14:54 51°13.852 2°55.623 336.1 4.3 336 -999
2008-04-01 04:14:59 51°13.858 2°55.619 336.1 4.4 335 -999
2008-04-01 04:15:03 51°13.863 2°55.616 336 4.5 335 10.1
2008-04-01 04:15:09 51°13.869 2°55.61 335.6 4.5 334 -999
2008-04-01 04:15:15 51°13.876 2°55.605 335.3 4.6 334 -999
2008-04-01 04:15:19 51°13.881 2°55.601 335.3 4.6 334 -999
2008-04-01 04:15:24 51°13.886 2°55.597 335 4.6 334 -999
2008-04-01 04:15:29 51°13.892 2°55.592 334.7 4.6 334 -999
2008-04-01 04:15:34 51°13.898 2°55.588 334.7 4.7 333 -999
2008-04-01 04:15:39 51°13.904 2°55.583 334.7 4.7 334 -999
2008-04-01 04:15:44 51°13.91 2°55.579 334.7 4.7 333 -999
2008-04-01 04:15:49 51°13.916 2°55.574 334.6 4.8 334 -999
2008-04-01 04:15:54 51°13.922 2°55.569 334.5 4.8 334 -999
2008-04-01 04:15:59 51°13.928 2°55.565 334.5 4.8 335 -999
2008-04-01 04:16:04 51°13.934 2°55.56 334.6 4.9 335 -999
2008-04-01 04:16:10 51°13.941 2°55.555 334.6 4.9 334 -999
2008-04-01 04:16:14 51°13.946 2°55.551 334.5 4.9 335 -999
2008-04-01 04:16:19 51°13.952 2°55.546 334.5 5 335 -999
2008-04-01 04:16:25 51°13.96 2°55.541 334.6 4.9 336 -999
2008-04-01 04:16:29 51°13.965 2°55.537 334.6 4.9 336 -999
2008-04-01 04:16:34 51°13.971 2°55.533 334.6 5 335 -999
2008-04-01 04:16:39 51°13.977 2°55.528 334.5 5 335 -999
2008-04-01 04:16:44 51°13.983 2°55.523 334.3 5 334 -999
2008-04-01 04:16:49 51°13.99 2°55.519 334.1 5 334 -999
2008-04-01 04:16:54 51°13.996 2°55.514 334.1 5 334 -999
2008-04-01 04:16:59 51°14.002 2°55.509 334 5.1 334 10.7
2008-04-01 04:17:03 51°14.007 2°55.505 333.8 5.1 334 10.8
2008-04-01 04:17:09 51°14.015 2°55.499 333.8 5.1 333 10.7
2008-04-01 04:17:14 51°14.021 2°55.494 333.5 5.1 333 10.7
2008-04-01 04:17:19 51°14.027 2°55.489 333.4 5.1 333 10.7
2008-04-01 04:17:23 51°14.032 2°55.485 333.4 5.2 333 10.6
2008-04-01 04:17:28 51°14.039 2°55.48 333.8 5.2 334 10.6
2008-04-01 04:17:34 51°14.047 2°55.473 334.1 5.3 333 10.7
2008-04-01 04:17:39 51°14.054 2°55.468 334.3 5.3 333 -999
2008-04-01 04:17:43 51°14.059 2°55.464 334.1 5.4 333 10.7
2008-04-01 04:17:49 51°14.067 2°55.457 333.8 5.5 333 10.6
2008-04-01 04:17:53 51°14.073 2°55.453 333.8 5.6 333 10.2
2008-04-01 04:17:59 51°14.081 2°55.446 333.8 5.7 332 -999
2008-04-01 04:18:03 51°14.087 2°55.441 333.8 5.8 332 10.4
2008-04-01 04:18:08 51°14.094 2°55.435 333.4 6 332 10.3
2008-04-01 04:18:13 51°14.102 2°55.429 333.1 6.2 332 10.2
2008-04-01 04:18:19 51°14.111 2°55.42 333 6.6 331 10.1
2008-04-01 04:18:24 51°14.12 2°55.413 332.7 7 331 10.7
2008-04-01 04:18:29 51°14.129 2°55.404 332.1 7.2 330 -999
2008-04-01 04:18:34 51°14.138 2°55.397 331.9 7.5 331 -999
2008-04-01 04:18:39 51°14.147 2°55.388 332.3 7.8 331 10.8
2008-04-01 04:18:44 51°14.157 2°55.38 331.8 8 330 -999
2008-04-01 04:18:48 51°14.165 2°55.372 331 8.2 330 4.7
2008-04-01 04:18:54 51°14.177 2°55.361 330.9 8.4 330 4.7
2008-04-01 04:18:59 51°14.187 2°55.351 331 8.5 329 4.9
2008-04-01 04:19:05 51°14.199 2°55.339 330.8 8.6 329 4.7
2008-04-01 04:19:09 51°14.208 2°55.331 329.6 8.7 327 -999
2008-04-01 04:19:14 51°14.218 2°55.32 328.1 8.8 327 11.2
2008-04-01 04:19:19 51°14.228 2°55.309 327.3 8.8 326 -999
2008-04-01 04:19:23 51°14.236 2°55.3 327 8.9 326 11.1
2008-04-01 04:19:29 51°14.248 2°55.286 325.8 8.9 324 10.4
2008-04-01 04:19:34 51°14.258 2°55.274 324.3 8.9 322 10.8
2008-04-01 04:19:39 51°14.267 2°55.262 323.4 8.9 322 10.2
2008-04-01 04:19:43 51°14.275 2°55.253 323 8.9 324 10.7
2008-04-01 04:19:48 51°14.285 2°55.242 322.9 8.8 324 11
2008-04-01 04:19:54 51°14.297 2°55.228 323.4 8.7 322 10.9
2008-04-01 04:19:59 51°14.305 2°55.214 322.1 8.7 315 10.1
2008-04-01 04:20:03 51°14.312 2°55.202 317.3 8.7 312 10.1
2008-04-01 04:20:08 51°14.32 2°55.188 314.1 8.7 313 11
2008-04-01 04:20:13 51°14.328 2°55.173 313.5 8.8 311 11.5
2008-04-01 04:20:19 51°14.337 2°55.155 312.4 8.9 310 10.1
2008-04-01 04:20:23 51°14.344 2°55.143 311.1 8.9 309 9.7
2008-04-01 04:20:28 51°14.351 2°55.128 310.3 8.9 309 9.6
2008-04-01 04:20:33 51°14.359 2°55.112 310.1 9 309 10.1
2008-04-01 04:20:39 51°14.368 2°55.093 309.6 8.9 308 9.6
2008-04-01 04:20:44 51°14.376 2°55.078 308.6 9 307 10
2008-04-01 04:20:48 51°14.382 2°55.065 308.2 9 308 10.2
2008-04-01 04:20:54 51°14.39 2°55.046 308.4 8.9 305 10.2
2008-04-01 04:20:59 51°14.397 2°55.029 306.5 8.8 302 10.2
2008-04-01 04:21:04 51°14.403 2°55.012 302.6 8.8 299 10.3
2008-04-01 04:21:08 51°14.408 2°54.998 299.6 8.9 297 10.3
2008-04-01 04:21:14 51°14.414 2°54.975 297.5 9.2 295 10.4
2008-04-01 04:21:19 51°14.419 2°54.956 295.7 9.4 293 10.5
2008-04-01 04:21:23 51°14.423 2°54.941 294.3 9.6 292 10.6
2008-04-01 04:21:28 51°14.428 2°54.921 293.3 9.7 291 10.6
2008-04-01 04:21:34 51°14.434 2°54.896 292.9 9.9 291 10.6
2008-04-01 04:21:39 51°14.439 2°54.875 292.8 10.1 292 10.6
2008-04-01 04:21:43 51°14.444 2°54.858 293.4 10.4 293 10.6
2008-04-01 04:21:48 51°14.45 2°54.837 294.5 10.6 293 10.6
2008-04-01 04:21:54 51°14.456 2°54.81 294.2 10.8 291 10.6
2008-04-01 04:21:59 51°14.461 2°54.787 293 10.9 291 10.6
2008-04-01 04:22:03 51°14.466 2°54.769 292.7 11.1 291 10.6
2008-04-01 04:22:08 51°14.472 2°54.746 292.6 11.3 291 10.5
2008-04-01 04:22:14 51°14.479 2°54.718 292.7 11.3 294 10.5
2008-04-01 04:22:19 51°14.486 2°54.695 295 11.5 295 10.5
2008-04-01 04:22:23 51°14.491 2°54.676 296.4 11.7 294 10.4
2008-04-01 04:22:28 51°14.498 2°54.653 296.8 11.8 295 10.4
2008-04-01 04:22:33 51°14.504 2°54.628 296.6 12 292 10.3
2008-04-01 04:22:40 51°14.513 2°54.593 294.5 12.1 291 10.4
2008-04-01 04:22:43 51°14.516 2°54.578 293 12.2 290 10.3
2008-04-01 04:22:49 51°14.523 2°54.546 291.7 12.4 288 10.3
2008-04-01 04:22:53 51°14.527 2°54.525 289.9 12.4 288 10.3
2008-04-01 04:22:59 51°14.533 2°54.494 289.4 12.5 287 10.3
2008-04-01 04:23:04 51°14.538 2°54.467 288.6 12.5 286 10.3
2008-04-01 04:23:08 51°14.541 2°54.446 288 12.5 286 10.3
2008-04-01 04:23:14 51°14.547 2°54.414 287.4 12.5 286 10.4
2008-04-01 04:23:19 51°14.551 2°54.387 287 12.6 285 10.5
2008-04-01 04:23:24 51°14.556 2°54.36 286.6 12.6 285 10.5
2008-04-01 04:23:28 51°14.56 2°54.339 286.6 12.6 286 10.6
2008-04-01 04:23:34 51°14.566 2°54.307 287.3 12.6 286 10.7
2008-04-01 04:23:39 51°14.57 2°54.28 287.5 12.6 286 10.7
2008-04-01 04:23:43 51°14.574 2°54.258 287.5 12.6 286 10.6
2008-04-01 04:23:49 51°14.581 2°54.226 287.7 12.7 287 10.7
2008-04-01 04:23:54 51°14.586 2°54.2 288.2 12.7 287 10.8
2008-04-01 04:23:59 51°14.591 2°54.173 288.2 12.6 287 10.8
2008-04-01 04:24:03 51°14.595 2°54.152 288 12.7 287 10.8
2008-04-01 04:24:08 51°14.601 2°54.125 288.1 12.7 288 10.9
2008-04-01 04:24:14 51°14.607 2°54.093 288.9 12.6 288 10.9
2008-04-01 04:24:19 51°14.613 2°54.066 289.7 12.6 289 10.9
2008-04-01 04:24:23 51°14.618 2°54.045 290.1 12.6 289 11
2008-04-01 04:24:28 51°14.623 2°54.019 290.3 12.7 288 10.8
2008-04-01 04:24:34 51°14.629 2°53.987 289.5 12.6 287 11
2008-04-01 04:24:39 51°14.634 2°53.96 288.8 12.6 286 10.9
2008-04-01 04:24:43 51°14.638 2°53.938 287.5 12.6 285 11
2008-04-01 04:24:48 51°14.642 2°53.911 286.7 12.6 285 10.8
2008-04-01 04:24:53 51°14.646 2°53.884 285.7 12.6 284 10.8
2008-04-01 04:24:59 51°14.651 2°53.852 285 12.6 284 10.6
2008-04-01 04:25:04 51°14.655 2°53.825 284.5 12.6 283 10.6
2008-04-01 04:25:08 51°14.659 2°53.803 284.3 12.5 284 10.5
2008-04-01 04:25:14 51°14.663 2°53.771 284.3 12.5 283 10.3
2008-04-01 04:25:19 51°14.667 2°53.744 284.4 12.5 284 10.2
2008-04-01 04:25:23 51°14.671 2°53.723 284.4 12.5 284 10.2
2008-04-01 04:25:28 51°14.675 2°53.696 284.5 12.5 284 10
2008-04-01 04:25:34 51°14.68 2°53.664 284.6 12.5 283 9.9
2008-04-01 04:25:39 51°14.684 2°53.637 284.5 12.4 283 9.9
2008-04-01 04:25:44 51°14.688 2°53.61 284.4 12.4 283 9.9
2008-04-01 04:25:48 51°14.691 2°53.589 284.3 12.5 283 9.8
2008-04-01 04:25:54 51°14.695 2°53.557 284.3 12.4 283 9.8
2008-04-01 04:25:59 51°14.7 2°53.53 284.4 12.4 283 9.8
2008-04-01 04:26:03 51°14.703 2°53.509 284.5 12.4 284 9.6
2008-04-01 04:26:09 51°14.709 2°53.477 284.6 12.4 284 9.5
2008-04-01 04:26:14 51°14.713 2°53.45 284.9 12.4 284 9.4
2008-04-01 04:26:19 51°14.717 2°53.424 284.9 12.4 284 9.4
2008-04-01 04:26:23 51°14.72 2°53.403 285 12.4 284 9.4
2008-04-01 04:26:29 51°14.725 2°53.371 285.3 12.4 284 9.4
2008-04-01 04:26:34 51°14.729 2°53.344 285.2 12.4 283 9.4
2008-04-01 04:26:39 51°14.733 2°53.317 284.9 12.4 284 9.3
2008-04-01 04:26:43 51°14.736 2°53.296 284.9 12.4 284 9.4
2008-04-01 04:26:48 51°14.74 2°53.269 284.8 12.4 284 9.3
2008-04-01 04:26:53 51°14.744 2°53.243 284.8 12.4 284 9.3
2008-04-01 04:26:59 51°14.749 2°53.211 285.4 12.4 284 9.3
2008-04-01 04:27:04 51°14.754 2°53.184 285.4 12.4 284 9.3
2008-04-01 04:27:08 51°14.757 2°53.163 285.5 12.5 284 9.2
2008-04-01 04:27:14 51°14.762 2°53.131 285.5 12.4 284 9.2
2008-04-01 04:27:19 51°14.766 2°53.104 285.3 12.4 283 9.3
2008-04-01 04:27:23 51°14.769 2°53.083 285.1 12.4 284 9.3
2008-04-01 04:27:28 51°14.774 2°53.056 285.1 12.5 284 9.4
2008-04-01 04:27:34 51°14.779 2°53.024 285.1 12.5 284 9.4
2008-04-01 04:27:39 51°14.783 2°52.998 285.4 12.5 284 9.4
2008-04-01 04:27:44 51°14.787 2°52.971 285.8 12.5 284 9.4
2008-04-01 04:27:48 51°14.79 2°52.949 285.8 12.5 284 9.4
2008-04-01 04:27:54 51°14.795 2°52.917 285.7 12.5 284 9.5
2008-04-01 04:27:59 51°14.8 2°52.89 285.4 12.5 284 9.5
2008-04-01 04:28:03 51°14.803 2°52.869 285.4 12.5 284 9.6
2008-04-01 04:28:09 51°14.808 2°52.837 285.4 12.5 285 9.6
2008-04-01 04:28:14 51°14.812 2°52.81 285.8 12.5 284 9.6
2008-04-01 04:28:19 51°14.817 2°52.783 285.9 12.5 284 9.6
2008-04-01 04:28:23 51°14.82 2°52.762 285.8 12.5 284 9.7
2008-04-01 04:28:29 51°14.825 2°52.729 285.7 12.5 284 9.7
2008-04-01 04:28:34 51°14.829 2°52.702 285.6 12.5 283 9.6
2008-04-01 04:28:39 51°14.832 2°52.675 283.9 12.5 281 9.7
2008-04-01 04:28:43 51°14.835 2°52.653 283 12.5 281 9.7
2008-04-01 04:28:48 51°14.838 2°52.626 282.2 12.5 280 9.7
2008-04-01 04:28:54 51°14.842 2°52.593 281.8 12.5 281 9.9
2008-04-01 04:28:59 51°14.845 2°52.566 281.7 12.5 281 9.8
2008-04-01 04:29:03 51°14.848 2°52.545 282 12.5 280 9.8
2008-04-01 04:29:08 51°14.851 2°52.517 281.8 12.6 281 9.8
2008-04-01 04:29:13 51°14.854 2°52.49 281.5 12.6 281 10
2008-04-01 04:29:19 51°14.859 2°52.457 282.3 12.6 283 9.9
2008-04-01 04:29:23 51°14.862 2°52.436 283.3 12.6 282 9.9
2008-04-01 04:29:28 51°14.866 2°52.409 283.9 12.6 284 9.9
2008-04-01 04:29:34 51°14.871 2°52.376 284.6 12.6 283 10
2008-04-01 04:29:39 51°14.875 2°52.349 284.9 12.6 284 10
2008-04-01 04:29:43 51°14.878 2°52.327 285.1 12.6 283 10.2
2008-04-01 04:29:48 51°14.882 2°52.3 284.9 12.6 283 10.1
2008-04-01 04:29:54 51°14.886 2°52.268 284.4 12.6 282 10.1
2008-04-01 04:29:59 51°14.89 2°52.241 284.2 12.6 283 10.2
2008-04-01 04:30:04 51°14.894 2°52.213 284.2 12.6 282 10.2
2008-04-01 04:30:08 51°14.897 2°52.191 284 12.6 283 10.3
2008-04-01 04:30:14 51°14.901 2°52.159 283.9 12.6 283 10.5
2008-04-01 04:30:19 51°14.905 2°52.131 283.9 12.6 282 10.3
2008-04-01 04:30:24 51°14.909 2°52.104 283.7 12.6 282 10.5
2008-04-01 04:30:29 51°14.913 2°52.077 283.5 12.6 283 10.5
2008-04-01 04:30:34 51°14.916 2°52.05 283.6 12.6 282 10.5
2008-04-01 04:30:39 51°14.92 2°52.023 283.5 12.6 282 10.5
2008-04-01 04:30:43 51°14.923 2°52.001 283.3 12.6 282 10.5
2008-04-01 04:30:48 51°14.926 2°51.974 283.3 12.6 281 10.6
2008-04-01 04:30:54 51°14.93 2°51.941 282.9 12.6 282 10.7
2008-04-01 04:30:59 51°14.934 2°51.914 282.9 12.6 282 10.8
2008-04-01 04:31:03 51°14.936 2°51.892 283 12.6 281 10.8
2008-04-01 04:31:08 51°14.94 2°51.865 282.4 12.6 281 10.8
2008-04-01 04:31:14 51°14.944 2°51.832 282.4 12.6 282 10.9
2008-04-01 04:31:19 51°14.948 2°51.805 282.7 12.6 282 10.9
2008-04-01 04:31:23 51°14.951 2°51.783 283.3 12.6 283 10.9
2008-04-01 04:31:28 51°14.954 2°51.756 283.6 12.6 282 11
2008-04-01 04:31:34 51°14.959 2°51.723 283.5 12.6 282 11
2008-04-01 04:31:39 51°14.962 2°51.696 283.2 12.6 282 11.1
2008-04-01 04:31:43 51°14.965 2°51.675 283.1 12.6 281 11.2
2008-04-01 04:31:48 51°14.968 2°51.647 282 12.5 280 11.2
2008-04-01 04:31:54 51°14.971 2°51.614 281.5 12.5 280 11.3
2008-04-01 04:31:59 51°14.974 2°51.587 280.8 12.5 279 11.3
2008-04-01 04:32:04 51°14.977 2°51.56 280.5 12.5 279 11.4
2008-04-01 04:32:08 51°14.979 2°51.537 280.2 12.6 279 11.4
2008-04-01 04:32:14 51°14.982 2°51.505 280.3 12.6 280 11.5
2008-04-01 04:32:19 51°14.985 2°51.477 280.6 12.6 279 11.5
2008-04-01 04:32:24 51°14.988 2°51.45 280.8 12.6 279 11.6
2008-04-01 04:32:29 51°14.991 2°51.422 280.8 12.6 279 11.5
2008-04-01 04:32:34 51°14.994 2°51.395 280.8 12.5 280 11.5
2008-04-01 04:32:39 51°14.997 2°51.368 280.6 12.5 280 11.6
2008-04-01 04:32:43 51°15 2°51.346 280.8 12.6 280 11.5
2008-04-01 04:32:49 51°15.005 2°51.314 282.3 12.5 284 11.6
2008-04-01 04:32:54 51°15.008 2°51.286 283.7 12.6 283 11.7
2008-04-01 04:32:59 51°15.013 2°51.26 284.9 12.6 285 11.7
2008-04-01 04:33:04 51°15.018 2°51.233 285.5 12.6 286 11.8
2008-04-01 04:33:08 51°15.022 2°51.211 286.7 12.6 287 11.9
2008-04-01 04:33:14 51°15.028 2°51.179 287.7 12.6 287 12
2008-04-01 04:33:19 51°15.033 2°51.153 288.3 12.6 287 11.9
2008-04-01 04:33:24 51°15.038 2°51.126 288.8 12.6 288 12.1
2008-04-01 04:33:29 51°15.043 2°51.099 289.1 12.6 287 12.1
2008-04-01 04:33:34 51°15.049 2°51.073 289 12.6 288 12
2008-04-01 04:33:39 51°15.054 2°51.046 288.9 12.6 287 12.1
2008-04-01 04:33:44 51°15.059 2°51.019 288.7 12.6 287 12.2
2008-04-01 04:33:49 51°15.063 2°50.993 288.2 12.6 285 12.1
2008-04-01 04:33:54 51°15.068 2°50.966 287.2 12.6 286 12.1
2008-04-01 04:33:59 51°15.072 2°50.939 286.7 12.6 284 12.2
2008-04-01 04:34:04 51°15.077 2°50.912 286.3 12.6 285 12.2
2008-04-01 04:34:09 51°15.081 2°50.885 286 12.6 284 12.2
2008-04-01 04:34:14 51°15.086 2°50.858 285.9 12.6 285 12.2
2008-04-01 04:34:19 51°15.09 2°50.831 285.8 12.6 285 12.3
2008-04-01 04:34:24 51°15.095 2°50.804 286.2 12.6 285 12.3
2008-04-01 04:34:29 51°15.099 2°50.777 286.4 12.6 285 12.3
2008-04-01 04:34:34 51°15.104 2°50.751 286.6 12.6 286 12.4
2008-04-01 04:34:39 51°15.109 2°50.724 286.8 12.6 286 12.7
2008-04-01 04:34:44 51°15.114 2°50.697 287.1 12.6 287 12.7
2008-04-01 04:34:49 51°15.119 2°50.67 287.7 12.6 287 12.5
2008-04-01 04:34:54 51°15.124 2°50.644 288.3 12.6 287 12.6
2008-04-01 04:34:59 51°15.129 2°50.617 288.5 12.6 287 12.6
2008-04-01 04:35:04 51°15.135 2°50.591 288.8 12.6 288 12.5
2008-04-01 04:35:09 51°15.14 2°50.564 289 12.7 286 12.6
2008-04-01 04:35:14 51°15.145 2°50.537 288.4 12.6 286 12.7
2008-04-01 04:35:19 51°15.149 2°50.51 287.9 12.7 285 12.6
2008-04-01 04:35:24 51°15.154 2°50.483 287.3 12.7 285 12.6
2008-04-01 04:35:29 51°15.158 2°50.456 286.6 12.7 284 12.6
2008-04-01 04:35:34 51°15.162 2°50.429 286.2 12.6 284 12.6
2008-04-01 04:35:39 51°15.167 2°50.401 285.9 12.6 284 12.6
2008-04-01 04:35:44 51°15.171 2°50.374 286.1 12.6 284 12.7
2008-04-01 04:35:49 51°15.175 2°50.347 286.2 12.6 284 12.6
2008-04-01 04:35:54 51°15.18 2°50.32 286.4 12.6 284 12.6
2008-04-01 04:35:59 51°15.184 2°50.294 286.5 12.6 285 12.8
2008-04-01 04:36:04 51°15.189 2°50.267 286.8 12.6 285 12.7
2008-04-01 04:36:09 51°15.193 2°50.24 286.8 12.6 285 12.7
2008-04-01 04:36:14 51°15.198 2°50.213 286.8 12.6 285 12.9
2008-04-01 04:36:19 51°15.202 2°50.186 286.8 12.6 285 13
2008-04-01 04:36:24 51°15.206 2°50.159 286.7 12.6 285 12.9
2008-04-01 04:36:29 51°15.211 2°50.132 286.6 12.6 285 13
2008-04-01 04:36:34 51°15.216 2°50.105 286.6 12.6 285 12.9
2008-04-01 04:36:39 51°15.22 2°50.078 286.8 12.6 285 12.9
2008-04-01 04:36:44 51°15.225 2°50.052 287.2 12.6 285 13.1
2008-04-01 04:36:49 51°15.229 2°50.025 286.9 12.5 285 12.7
2008-04-01 04:36:54 51°15.234 2°49.998 286.6 12.5 285 12.9
2008-04-01 04:36:59 51°15.238 2°49.971 286.5 12.5 285 12.8
2008-04-01 04:37:04 51°15.243 2°49.944 286.4 12.5 285 12.8
2008-04-01 04:37:09 51°15.247 2°49.918 286.5 12.5 285 13
2008-04-01 04:37:14 51°15.252 2°49.891 286.8 12.5 285 12.8
2008-04-01 04:37:19 51°15.256 2°49.864 286.7 12.5 285 12.9
2008-04-01 04:37:24 51°15.261 2°49.837 286.4 12.5 285 13
2008-04-01 04:37:29 51°15.265 2°49.811 286.6 12.5 285 12.9
2008-04-01 04:37:34 51°15.27 2°49.784 286.7 12.5 285 13
2008-04-01 04:37:39 51°15.274 2°49.757 286.6 12.5 285 12.8
2008-04-01 04:37:44 51°15.279 2°49.731 286.6 12.5 285 13
2008-04-01 04:37:49 51°15.283 2°49.704 286.6 12.6 286 12.6
2008-04-01 04:37:54 51°15.288 2°49.677 286.9 12.5 286 13.1
2008-04-01 04:37:59 51°15.293 2°49.65 287.3 12.6 286 13
2008-04-01 04:38:04 51°15.297 2°49.624 287.3 12.5 286 13.1
2008-04-01 04:38:09 51°15.302 2°49.597 287.3 12.5 286 13.2
2008-04-01 04:38:14 51°15.307 2°49.57 287.3 12.6 285 13
2008-04-01 04:38:19 51°15.311 2°49.544 287 12.5 285 12.8
2008-04-01 04:38:24 51°15.316 2°49.517 286.9 12.6 286 13
2008-04-01 04:38:29 51°15.321 2°49.49 287 12.6 286 13
2008-04-01 04:38:34 51°15.326 2°49.464 287.3 12.6 286 13.1
2008-04-01 04:38:39 51°15.33 2°49.437 287.8 12.5 286 13
2008-04-01 04:38:44 51°15.335 2°49.41 287.6 12.6 285 13
2008-04-01 04:38:49 51°15.34 2°49.384 287 12.5 286 13.1
2008-04-01 04:38:54 51°15.344 2°49.357 287 12.5 285 13.1
2008-04-01 04:38:59 51°15.349 2°49.33 286.8 12.5 285 13.1
2008-04-01 04:39:04 51°15.354 2°49.304 286.7 12.5 286 13.1
2008-04-01 04:39:09 51°15.358 2°49.277 286.6 12.5 286 13
2008-04-01 04:39:14 51°15.363 2°49.251 287.1 12.5 286 13.2
2008-04-01 04:39:19 51°15.368 2°49.224 287.3 12.5 286 13.2
2008-04-01 04:39:24 51°15.373 2°49.197 287.3 12.5 286 13.2
2008-04-01 04:39:29 51°15.378 2°49.171 287.2 12.5 285 13.1
2008-04-01 04:39:34 51°15.382 2°49.144 286.9 12.6 286 13.2
2008-04-01 04:39:39 51°15.387 2°49.117 286.8 12.5 286 13.2
2008-04-01 04:39:44 51°15.392 2°49.091 286.7 12.5 286 13.1
2008-04-01 04:39:49 51°15.396 2°49.064 287 12.6 286 13.1
2008-04-01 04:39:54 51°15.401 2°49.038 287.3 12.5 286 13.1
2008-04-01 04:39:59 51°15.406 2°49.011 287.4 12.5 286 13
2008-04-01 04:40:04 51°15.411 2°48.984 287.5 12.5 286 13
2008-04-01 04:40:09 51°15.416 2°48.958 287.5 12.5 286 13
2008-04-01 04:40:14 51°15.42 2°48.931 287.2 12.5 285 12.9
2008-04-01 04:40:19 51°15.425 2°48.905 286.6 12.5 286 12.8
2008-04-01 04:40:24 51°15.43 2°48.878 286.8 12.5 285 12.6
2008-04-01 04:40:29 51°15.434 2°48.851 286.9 12.5 286 12.4
2008-04-01 04:40:34 51°15.439 2°48.825 286.9 12.5 285 12.2
2008-04-01 04:40:39 51°15.444 2°48.798 286.9 12.4 286 12
2008-04-01 04:40:44 51°15.448 2°48.772 287.2 12.4 285 11.8
2008-04-01 04:40:49 51°15.453 2°48.746 287.2 12.4 286 11.5
2008-04-01 04:40:54 51°15.457 2°48.719 287.1 12.4 286 11.4
2008-04-01 04:40:59 51°15.462 2°48.693 287.1 12.4 286 11.2
2008-04-01 04:41:04 51°15.467 2°48.667 287.2 12.3 285 11
2008-04-01 04:41:09 51°15.471 2°48.64 286.9 12.3 285 10.9
2008-04-01 04:41:14 51°15.476 2°48.614 286.7 12.4 285 10.8
2008-04-01 04:41:19 51°15.48 2°48.588 286.7 12.3 285 10.7
2008-04-01 04:41:24 51°15.485 2°48.561 286.8 12.3 286 10.6
2008-04-01 04:41:29 51°15.49 2°48.535 287.1 12.3 286 10.6
2008-04-01 04:41:34 51°15.494 2°48.509 287.5 12.3 285 10.5
2008-04-01 04:41:39 51°15.498 2°48.482 287 12.4 285 10.5
2008-04-01 04:41:44 51°15.503 2°48.456 286.9 12.3 285 10.4
2008-04-01 04:41:49 51°15.508 2°48.43 286.9 12.3 285 10.4
2008-04-01 04:41:54 51°15.512 2°48.404 287 12.3 285 10.4
2008-04-01 04:41:59 51°15.516 2°48.377 286.9 12.3 285 10.4
2008-04-01 04:42:04 51°15.521 2°48.351 286.8 12.3 285 10.5
2008-04-01 04:42:09 51°15.526 2°48.325 286.8 12.3 285 10.6
2008-04-01 04:42:14 51°15.53 2°48.299 286.9 12.3 286 10.6
2008-04-01 04:42:19 51°15.535 2°48.272 287.3 12.4 285 10.6
2008-04-01 04:42:24 51°15.539 2°48.246 287.3 12.3 286 10.7
2008-04-01 04:42:29 51°15.544 2°48.219 287.1 12.3 285 10.7
2008-04-01 04:42:34 51°15.548 2°48.193 286.8 12.4 285 10.8
2008-04-01 04:42:39 51°15.553 2°48.166 286.7 12.4 285 10.8
2008-04-01 04:42:44 51°15.557 2°48.14 286.7 12.4 286 10.9
2008-04-01 04:42:49 51°15.562 2°48.114 287.3 12.4 286 11
2008-04-01 04:42:54 51°15.567 2°48.087 287.3 12.4 286 11.1
2008-04-01 04:42:59 51°15.571 2°48.061 287.3 12.4 286 11.2
2008-04-01 04:43:04 51°15.576 2°48.035 287.3 12.4 286 11.3
2008-04-01 04:43:09 51°15.581 2°48.008 287.2 12.4 286 11.3
2008-04-01 04:43:14 51°15.585 2°47.982 287 12.4 285 11.5
2008-04-01 04:43:19 51°15.59 2°47.955 286.8 12.4 286 11.5
2008-04-01 04:43:24 51°15.595 2°47.929 287.1 12.4 286 11.7
2008-04-01 04:43:29 51°15.599 2°47.903 287.3 12.5 286 11.8
2008-04-01 04:43:34 51°15.604 2°47.876 287.4 12.5 286 11.9
2008-04-01 04:43:39 51°15.609 2°47.849 287.3 12.4 285 12.1
2008-04-01 04:43:44 51°15.613 2°47.823 287 12.5 285 12.2
2008-04-01 04:43:49 51°15.618 2°47.796 286.7 12.5 286 12.4
2008-04-01 04:43:54 51°15.623 2°47.77 286.7 12.5 286 12.5
2008-04-01 04:43:59 51°15.628 2°47.743 286.8 12.5 288 12.6
2008-04-01 04:44:04 51°15.633 2°47.717 288.5 12.5 289 12.9
2008-04-01 04:44:09 51°15.639 2°47.691 289.5 12.5 289 13
2008-04-01 04:44:14 51°15.645 2°47.665 290.5 12.5 291 13.2
2008-04-01 04:44:19 51°15.651 2°47.639 291.8 12.6 291 13.4
2008-04-01 04:44:24 51°15.658 2°47.613 292.6 12.6 292 13.6
2008-04-01 04:44:29 51°15.665 2°47.588 293.2 12.6 292 13.7
2008-04-01 04:44:34 51°15.671 2°47.562 293.4 12.6 292 13.9
2008-04-01 04:44:39 51°15.678 2°47.536 293.5 12.6 293 14.1
2008-04-01 04:44:44 51°15.684 2°47.51 293.9 12.6 292 14.3
2008-04-01 04:44:49 51°15.691 2°47.484 293.9 12.6 292 14.4
2008-04-01 04:44:54 51°15.697 2°47.458 293.5 12.6 291 14.5
2008-04-01 04:44:59 51°15.704 2°47.432 292.9 12.6 292 14.7
2008-04-01 04:45:04 51°15.71 2°47.406 292.7 12.6 291 14.9
2008-04-01 04:45:09 51°15.716 2°47.38 292.7 12.6 291 15.1
2008-04-01 04:45:14 51°15.722 2°47.354 292.1 12.6 290 15.2
2008-04-01 04:45:19 51°15.728 2°47.327 291.5 12.6 290 15.2
2008-04-01 04:45:24 51°15.734 2°47.301 290.9 12.6 290 15.3
2008-04-01 04:45:29 51°15.74 2°47.275 290.7 12.6 290 15.3
2008-04-01 04:45:34 51°15.746 2°47.249 290.9 12.6 290 15.5
2008-04-01 04:45:39 51°15.752 2°47.223 291 12.6 290 15.6
2008-04-01 04:45:44 51°15.758 2°47.196 291 12.6 290 15.7
2008-04-01 04:45:49 51°15.764 2°47.17 291.2 12.6 290 15.8
2008-04-01 04:45:54 51°15.77 2°47.144 291.4 12.6 291 15.9
2008-04-01 04:45:59 51°15.777 2°47.118 291.7 12.6 292 16
2008-04-01 04:46:04 51°15.783 2°47.092 292.5 12.6 292 16.3
2008-04-01 04:46:09 51°15.79 2°47.066 292.9 12.7 292 16.4
2008-04-01 04:46:14 51°15.797 2°47.04 293.1 12.6 293 16.6
2008-04-01 04:46:19 51°15.803 2°47.014 293.3 12.7 292 16.9
2008-04-01 04:46:24 51°15.809 2°46.988 292.9 12.7 291 16.9
2008-04-01 04:46:29 51°15.815 2°46.962 292 12.7 291 17
2008-04-01 04:46:34 51°15.822 2°46.936 291.9 12.6 291 17
2008-04-01 04:46:39 51°15.828 2°46.91 291.4 12.7 290 17
2008-04-01 04:46:44 51°15.834 2°46.883 291.1 12.6 290 17
2008-04-01 04:46:49 51°15.84 2°46.857 290.9 12.6 290 17
2008-04-01 04:46:54 51°15.846 2°46.831 290.9 12.6 291 17.1
2008-04-01 04:46:59 51°15.852 2°46.805 291 12.6 290 17.1
2008-04-01 04:47:04 51°15.858 2°46.779 291 12.6 291 17.1
2008-04-01 04:47:09 51°15.864 2°46.752 291 12.6 290 17.1
2008-04-01 04:47:14 51°15.87 2°46.727 291 12.6 291 17
2008-04-01 04:47:19 51°15.876 2°46.701 290.8 12.6 291 17
2008-04-01 04:47:24 51°15.883 2°46.675 291.5 12.5 292 16.9
2008-04-01 04:47:29 51°15.889 2°46.649 292.6 12.5 292 16.8
2008-04-01 04:47:34 51°15.896 2°46.624 293 12.5 294 16.7
2008-04-01 04:47:39 51°15.903 2°46.599 294.2 12.5 293 16.6
2008-04-01 04:47:44 51°15.911 2°46.574 294.7 12.5 295 16.5
2008-04-01 04:47:49 51°15.918 2°46.549 295.5 12.5 295 16.5
2008-04-01 04:47:54 51°15.925 2°46.524 295.9 12.5 295 16.3
2008-04-01 04:47:59 51°15.933 2°46.499 296 12.5 295 16.2
2008-04-01 04:48:04 51°15.94 2°46.473 295.9 12.5 295 15.9
2008-04-01 04:48:09 51°15.947 2°46.448 295.8 12.5 294 15.6
2008-04-01 04:48:14 51°15.954 2°46.423 295.7 12.4 293 15.5
2008-04-01 04:48:19 51°15.96 2°46.398 295.3 12.4 293 15.4
2008-04-01 04:48:24 51°15.967 2°46.373 294.4 12.5 293 15.3
2008-04-01 04:48:29 51°15.974 2°46.347 294.1 12.4 294 15.1
2008-04-01 04:48:34 51°15.981 2°46.322 294.1 12.4 293 14.8
2008-04-01 04:48:39 51°15.987 2°46.297 293.9 12.4 293 14.7
2008-04-01 04:48:44 51°15.994 2°46.272 294 12.4 294 14.4
2008-04-01 04:48:49 51°16.001 2°46.247 294.1 12.4 293 14.2
2008-04-01 04:48:54 51°16.008 2°46.221 294.3 12.4 293 14.1
2008-04-01 04:48:59 51°16.014 2°46.196 294.1 12.4 293 13.8
2008-04-01 04:49:04 51°16.021 2°46.171 293.9 12.3 293 12.9
2008-04-01 04:49:09 51°16.028 2°46.146 294.2 12.3 293 12.9
2008-04-01 04:49:14 51°16.034 2°46.121 293.8 12.3 293 13
2008-04-01 04:49:19 51°16.041 2°46.096 293.6 12.3 293 13
2008-04-01 04:49:24 51°16.047 2°46.071 293.5 12.3 293 12.9
2008-04-01 04:49:29 51°16.054 2°46.046 293.9 12.3 293 12.8
2008-04-01 04:49:34 51°16.061 2°46.021 293.9 12.3 293 12.7
2008-04-01 04:49:39 51°16.067 2°45.996 293.9 12.3 293 12.5
2008-04-01 04:49:44 51°16.074 2°45.971 294 12.2 293 12.3
2008-04-01 04:49:49 51°16.081 2°45.946 294.6 12.3 293 12.2
2008-04-01 04:49:54 51°16.087 2°45.921 294.5 12.2 293 12
2008-04-01 04:49:59 51°16.094 2°45.896 294.2 12.2 293 12
2008-04-01 04:50:04 51°16.101 2°45.871 294.1 12.2 293 11.9
2008-04-01 04:50:09 51°16.107 2°45.846 294 12.2 292 11.9
2008-04-01 04:50:14 51°16.113 2°45.821 293.9 12.2 293 12
2008-04-01 04:50:19 51°16.12 2°45.796 293.9 12.2 293 11.8
2008-04-01 04:50:24 51°16.127 2°45.771 294.1 12.2 293 11.8
2008-04-01 04:50:29 51°16.134 2°45.747 295.2 12.2 297 11.6
2008-04-01 04:50:34 51°16.142 2°45.723 296.7 12.2 295 11.5
2008-04-01 04:50:39 51°16.149 2°45.699 297.3 12.2 298 11.6
2008-04-01 04:50:44 51°16.157 2°45.675 298.5 12.2 297 11.5
2008-04-01 04:50:49 51°16.165 2°45.651 298.9 12.2 298 11.3
2008-04-01 04:50:54 51°16.173 2°45.627 299.3 12.2 297 11.3
2008-04-01 04:50:59 51°16.181 2°45.603 299 12.2 298 11.2
2008-04-01 04:51:04 51°16.189 2°45.58 299.7 12.2 299 11.1
2008-04-01 04:51:09 51°16.197 2°45.557 300.5 12.1 300 10.9
2008-04-01 04:51:14 51°16.206 2°45.534 301.3 12.1 300 10.7
2008-04-01 04:51:19 51°16.215 2°45.511 302.5 12.1 302 10.7
2008-04-01 04:51:24 51°16.224 2°45.488 303.7 12.1 301 10.5
2008-04-01 04:51:29 51°16.233 2°45.465 304 12.2 302 10.4
2008-04-01 04:51:34 51°16.242 2°45.443 304.4 12.1 303 10.5
2008-04-01 04:51:39 51°16.251 2°45.42 304.8 12.2 302 10.6
2008-04-01 04:51:44 51°16.26 2°45.397 304.5 12.2 300 10.6
2008-04-01 04:51:49 51°16.268 2°45.374 303.6 12.2 301 10.7
2008-04-01 04:51:54 51°16.277 2°45.351 302.8 12.2 299 11
2008-04-01 04:51:59 51°16.285 2°45.327 302.1 12.2 300 11.1
2008-04-01 04:52:04 51°16.293 2°45.304 302 12.2 299 11.5
2008-04-01 04:52:09 51°16.302 2°45.28 301.9 12.2 300 11.3
2008-04-01 04:52:14 51°16.31 2°45.257 301.8 12.2 299 11.4
2008-04-01 04:52:19 51°16.319 2°45.234 301.7 12.2 300 11.3
2008-04-01 04:52:24 51°16.327 2°45.21 301.8 12.1 301 11.4
2008-04-01 04:52:29 51°16.337 2°45.188 302.8 12.1 303 11.4
2008-04-01 04:52:34 51°16.346 2°45.165 303.8 12.1 302 11.4
2008-04-01 04:52:39 51°16.355 2°45.143 304.7 12.2 304 11.6
2008-04-01 04:52:44 51°16.364 2°45.12 305.4 12.2 303 11.5
2008-04-01 04:52:49 51°16.374 2°45.098 305.4 12.2 304 11.5
2008-04-01 04:52:54 51°16.383 2°45.076 305.6 12.2 304 11.5
2008-04-01 04:52:59 51°16.393 2°45.053 305.9 12.2 305 11.5
2008-04-01 04:53:04 51°16.403 2°45.031 306.9 12.2 305 11.4
2008-04-01 04:53:09 51°16.413 2°45.009 307.3 12.2 305 11.5
2008-04-01 04:53:14 51°16.422 2°44.988 307.6 12.2 305 11.4
2008-04-01 04:53:19 51°16.432 2°44.966 308 12.2 306 11.4
2008-04-01 04:53:24 51°16.443 2°44.944 308.1 12.2 306 11.4
2008-04-01 04:53:29 51°16.452 2°44.922 307.9 12.2 306 11.3
2008-04-01 04:53:34 51°16.462 2°44.899 307.6 12.2 304 11
2008-04-01 04:53:39 51°16.471 2°44.877 306.9 12.2 305 10.8
2008-04-01 04:53:44 51°16.481 2°44.855 306.8 12.2 304 10.5
2008-04-01 04:53:49 51°16.49 2°44.832 306.4 12.2 304 10.5
2008-04-01 04:53:54 51°16.5 2°44.81 306.2 12.2 303 10.6
2008-04-01 04:53:59 51°16.509 2°44.787 305.7 12.2 303 10.6
2008-04-01 04:54:04 51°16.518 2°44.764 305 12.2 302 10.7
2008-04-01 04:54:09 51°16.527 2°44.742 304.7 12.3 303 10.8
2008-04-01 04:54:14 51°16.536 2°44.719 304.5 12.3 303 11
2008-04-01 04:54:19 51°16.546 2°44.696 304.7 12.3 303 11.2
2008-04-01 04:54:24 51°16.555 2°44.673 305 12.3 303 11.6
2008-04-01 04:54:29 51°16.564 2°44.651 305.2 12.3 303 11.7
2008-04-01 04:54:34 51°16.573 2°44.628 305.1 12.3 302 11.9
2008-04-01 04:54:39 51°16.582 2°44.605 304.8 12.2 302 11.9
2008-04-01 04:54:44 51°16.592 2°44.582 304.3 12.3 303 12.2
2008-04-01 04:54:49 51°16.601 2°44.559 304.7 12.3 303 12.2
2008-04-01 04:54:54 51°16.61 2°44.537 304.9 12.3 303 12.4
2008-04-01 04:54:59 51°16.62 2°44.514 305.1 12.3 303 12.4
2008-04-01 04:55:04 51°16.629 2°44.491 305.3 12.2 303 12.9
2008-04-01 04:55:09 51°16.638 2°44.468 305.2 12.3 303 13.3
2008-04-01 04:55:14 51°16.647 2°44.446 305 12.3 303 13.5
2008-04-01 04:55:19 51°16.657 2°44.423 305 12.3 304 13.8
2008-04-01 04:55:24 51°16.666 2°44.4 305 12.4 302 14.2
2008-04-01 04:55:29 51°16.675 2°44.377 304.7 12.3 303 14.3
2008-04-01 04:55:34 51°16.685 2°44.354 304.8 12.3 303 14.6
2008-04-01 04:55:39 51°16.694 2°44.331 305 12.3 303 14.7
2008-04-01 04:55:44 51°16.703 2°44.308 305.5 12.4 303 14.8
2008-04-01 04:55:49 51°16.712 2°44.285 305.5 12.3 303 14.9
2008-04-01 04:55:54 51°16.722 2°44.262 305.3 12.4 303 14.9
2008-04-01 04:55:59 51°16.731 2°44.24 305.3 12.4 303 15
2008-04-01 04:56:04 51°16.741 2°44.217 305.2 12.4 304 15.1
2008-04-01 04:56:09 51°16.75 2°44.194 305.2 12.4 303 15.1
2008-04-01 04:56:14 51°16.76 2°44.171 304.8 12.3 304 15.1
2008-04-01 04:56:19 51°16.769 2°44.148 305.2 12.4 303 15.2
2008-04-01 04:56:24 51°16.778 2°44.125 305.5 12.4 303 15.2
2008-04-01 04:56:29 51°16.788 2°44.102 305.2 12.4 303 15.2
2008-04-01 04:56:34 51°16.797 2°44.079 305.3 12.4 303 15.5
2008-04-01 04:56:39 51°16.806 2°44.056 305.3 12.4 303 15.6
2008-04-01 04:56:44 51°16.816 2°44.034 305.5 12.4 303 15.5
2008-04-01 04:56:49 51°16.825 2°44.011 305.2 12.4 303 15.2
2008-04-01 04:56:54 51°16.835 2°43.988 305.1 12.3 304 15.2
2008-04-01 04:56:59 51°16.844 2°43.965 305.4 12.4 304 15.2
2008-04-01 04:57:04 51°16.854 2°43.942 305.4 12.4 304 15
2008-04-01 04:57:09 51°16.864 2°43.92 305.7 12.4 304 15.2
2008-04-01 04:57:14 51°16.873 2°43.897 306 12.4 304 15.4
2008-04-01 04:57:19 51°16.883 2°43.874 306.3 12.4 305 15
2008-04-01 04:57:24 51°16.893 2°43.852 306.4 12.4 305 14.8
2008-04-01 04:57:29 51°16.903 2°43.829 306.6 12.4 305 15
2008-04-01 04:57:34 51°16.912 2°43.806 306.5 12.4 304 15.2
2008-04-01 04:57:39 51°16.921 2°43.783 305.7 12.4 303 15
2008-04-01 04:57:44 51°16.931 2°43.761 305.2 12.4 304 15.1
2008-04-01 04:57:49 51°16.94 2°43.738 305.1 12.4 304 15.2
2008-04-01 04:57:54 51°16.95 2°43.715 305.1 12.4 304 15.2
2008-04-01 04:57:59 51°16.959 2°43.692 305.3 12.4 304 15
2008-04-01 04:58:04 51°16.969 2°43.669 305.3 12.4 303 14.8
2008-04-01 04:58:09 51°16.978 2°43.646 305 12.4 303 14.8
2008-04-01 04:58:14 51°16.988 2°43.623 304.9 12.4 304 14.8
2008-04-01 04:58:19 51°16.997 2°43.6 305.1 12.4 304 14.7
2008-04-01 04:58:24 51°17.007 2°43.577 305.4 12.4 303 14.7
2008-04-01 04:58:29 51°17.016 2°43.554 305.5 12.4 303 14.7
2008-04-01 04:58:34 51°17.026 2°43.531 305 12.5 304 14.8
2008-04-01 04:58:39 51°17.036 2°43.509 305 12.4 304 14.7
2008-04-01 04:58:44 51°17.045 2°43.486 305.2 12.4 304 14.6
2008-04-01 04:58:49 51°17.055 2°43.463 305.5 12.5 304 14.7
2008-04-01 04:58:54 51°17.064 2°43.44 305.3 12.4 304 14.6
2008-04-01 04:58:59 51°17.074 2°43.417 304.9 12.4 303 14.7
2008-04-01 04:59:04 51°17.083 2°43.394 304.7 12.4 303 14.6
2008-04-01 04:59:09 51°17.093 2°43.371 304.6 12.4 303 14.3
2008-04-01 04:59:14 51°17.102 2°43.349 304.7 12.4 304 14.1
2008-04-01 04:59:19 51°17.112 2°43.326 305.1 12.4 304 13.8
2008-04-01 04:59:24 51°17.121 2°43.303 305.4 12.4 304 13.2
2008-04-01 04:59:29 51°17.131 2°43.28 305.3 12.4 304 12.7
2008-04-01 04:59:34 51°17.14 2°43.258 305 12.3 304 11.7
2008-04-01 04:59:39 51°17.15 2°43.235 305 12.3 304 11.9
2008-04-01 04:59:44 51°17.159 2°43.212 305 12.3 304 13.5
2008-04-01 04:59:49 51°17.169 2°43.189 305 12.4 304 13.5
2008-04-01 04:59:54 51°17.179 2°43.167 305.2 12.4 304 12.8
2008-04-01 04:59:59 51°17.188 2°43.144 304.8 12.4 304 11.8
2008-04-01 05:00:04 51°17.198 2°43.122 304.7 12.3 305 10.8
2008-04-01 05:00:09 51°17.208 2°43.1 305.3 12.3 304 12.6
2008-04-01 05:00:14 51°17.218 2°43.077 305.4 12.3 305 13.1
2008-04-01 05:00:19 51°17.227 2°43.054 305.6 12.4 304 12.5
2008-04-01 05:00:24 51°17.237 2°43.032 305.3 12.3 304 11.7
2008-04-01 05:00:29 51°17.246 2°43.009 305.1 12.3 304 11.4
2008-04-01 05:00:34 51°17.256 2°42.987 305 12.3 304 11.7
2008-04-01 05:00:39 51°17.265 2°42.964 305 12.3 304 11.5
2008-04-01 05:00:44 51°17.276 2°42.942 305.5 12.3 306 10.9
2008-04-01 05:00:49 51°17.286 2°42.92 306.1 12.3 306 10.7
2008-04-01 05:00:54 51°17.296 2°42.899 306.3 12.2 308 10.6
2008-04-01 05:00:59 51°17.307 2°42.878 307.9 12.3 309 10.4
2008-04-01 05:01:04 51°17.317 2°42.857 308.9 12.2 309 10
2008-04-01 05:01:09 51°17.328 2°42.836 309.7 12.2 309 9.3
2008-04-01 05:01:14 51°17.339 2°42.815 310.4 12.1 310 8.9
2008-04-01 05:01:19 51°17.349 2°42.794 310.5 12.2 308 11
2008-04-01 05:01:24 51°17.359 2°42.772 309.1 12.3 307 11.8
2008-04-01 05:01:29 51°17.37 2°42.75 308.2 12.5 307 12
2008-04-01 05:01:34 51°17.381 2°42.728 307.6 12.4 307 12.1
2008-04-01 05:01:39 51°17.391 2°42.706 307.5 12.5 307 12.2
2008-04-01 05:01:44 51°17.401 2°42.685 307.6 12.4 307 12.7
2008-04-01 05:01:49 51°17.412 2°42.663 308 12.4 308 13.5
2008-04-01 05:01:54 51°17.422 2°42.641 308.3 12.5 307 14.3
2008-04-01 05:01:59 51°17.433 2°42.619 307.6 12.5 307 15.6
2008-04-01 05:02:04 51°17.443 2°42.597 307.7 12.5 307 17.8
2008-04-01 05:02:09 51°17.454 2°42.575 307.8 12.5 307 19.8
2008-04-01 05:02:14 51°17.465 2°42.553 307.9 12.5 308 20.8
2008-04-01 05:02:19 51°17.475 2°42.531 308.4 12.6 308 21.3
2008-04-01 05:02:24 51°17.486 2°42.509 308.9 12.6 309 21.6
2008-04-01 05:02:29 51°17.497 2°42.487 309 12.6 307 22
2008-04-01 05:02:34 51°17.507 2°42.465 308.7 12.5 307 22.4
2008-04-01 05:02:39 51°17.517 2°42.442 308 12.6 306 22.7
2008-04-01 05:02:44 51°17.527 2°42.42 306.9 12.5 306 22.9
2008-04-01 05:02:49 51°17.538 2°42.398 306.7 12.5 306 23.1
2008-04-01 05:02:54 51°17.547 2°42.375 306.2 12.5 305 23.3
2008-04-01 05:02:59 51°17.557 2°42.352 306 12.5 305 23.6
2008-04-01 05:03:04 51°17.567 2°42.33 305.6 12.5 305 23.7
2008-04-01 05:03:09 51°17.577 2°42.307 305.5 12.5 305 23.8
2008-04-01 05:03:14 51°17.587 2°42.284 306 12.5 306 23.7
2008-04-01 05:03:19 51°17.598 2°42.262 306.5 12.5 306 23.8
2008-04-01 05:03:24 51°17.608 2°42.24 306.8 12.6 305 23.9
2008-04-01 05:03:29 51°17.618 2°42.217 306.6 12.6 306 24
2008-04-01 05:03:34 51°17.628 2°42.194 306.7 12.5 306 24.2
2008-04-01 05:03:39 51°17.638 2°42.172 306.4 12.5 305 24.4
2008-04-01 05:03:44 51°17.648 2°42.149 306.2 12.6 306 24.6
2008-04-01 05:03:49 51°17.658 2°42.126 306.4 12.6 305 24.5
2008-04-01 05:03:54 51°17.668 2°42.104 306.6 12.6 306 24.3
2008-04-01 05:03:59 51°17.678 2°42.081 307 12.5 305 24.3
2008-04-01 05:04:04 51°17.688 2°42.059 306.5 12.5 305 24.3
2008-04-01 05:04:09 51°17.698 2°42.036 306.2 12.5 306 24.5
2008-04-01 05:04:14 51°17.708 2°42.013 306.2 12.5 305 24.7
2008-04-01 05:04:19 51°17.718 2°41.991 306 12.5 305 24.5
2008-04-01 05:04:24 51°17.728 2°41.968 305.9 12.6 305 24.6
2008-04-01 05:04:29 51°17.738 2°41.945 305.9 12.5 306 24.6
2008-04-01 05:04:34 51°17.748 2°41.923 305.9 12.5 305 24.6
2008-04-01 05:04:39 51°17.758 2°41.9 306 12.5 306 24.5
2008-04-01 05:04:44 51°17.768 2°41.878 306.4 12.5 306 24.5
2008-04-01 05:04:49 51°17.778 2°41.855 306.2 12.5 305 24.5
2008-04-01 05:04:54 51°17.788 2°41.832 306.2 12.6 305 24.4
2008-04-01 05:04:59 51°17.798 2°41.81 306.2 12.5 305 24.6
2008-04-01 05:05:04 51°17.808 2°41.787 305.6 12.5 305 24.5
2008-04-01 05:05:09 51°17.818 2°41.764 305.5 12.6 305 24.4
2008-04-01 05:05:14 51°17.828 2°41.741 305.5 12.5 305 24.4
2008-04-01 05:05:19 51°17.838 2°41.719 305.7 12.5 305 24.5
2008-04-01 05:05:24 51°17.848 2°41.696 305.8 12.5 306 24.6
2008-04-01 05:05:29 51°17.858 2°41.673 306 12.6 305 24.3
2008-04-01 05:05:34 51°17.868 2°41.651 306 12.5 305 24.3
2008-04-01 05:05:39 51°17.877 2°41.628 305.5 12.5 303 24.1
2008-04-01 05:05:44 51°17.887 2°41.605 305.2 12.5 305 24.2
2008-04-01 05:05:49 51°17.897 2°41.582 305.5 12.5 304 24.1
2008-04-01 05:05:54 51°17.908 2°41.559 306 12.6 307 24.1
2008-04-01 05:05:59 51°17.917 2°41.536 306.3 12.6 305 23.7
2008-04-01 05:06:04 51°17.928 2°41.514 306.4 12.5 306 23.8
2008-04-01 05:06:09 51°17.938 2°41.492 306.9 12.6 305 23.7
2008-04-01 05:06:14 51°17.948 2°41.469 306.5 12.5 305 23.7
2008-04-01 05:06:19 51°17.958 2°41.446 306.2 12.6 305 23.6
2008-04-01 05:06:24 51°17.968 2°41.424 306.3 12.5 306 23.3
2008-04-01 05:06:29 51°17.978 2°41.401 306.2 12.6 305 23.1
2008-04-01 05:06:34 51°17.988 2°41.379 306.1 12.5 306 22.3
2008-04-01 05:06:39 51°17.999 2°41.356 307 12.5 306 21.9
2008-04-01 05:06:44 51°18.009 2°41.334 307 12.5 307 22.8
2008-04-01 05:06:49 51°18.019 2°41.311 307 12.6 305 22.7
2008-04-01 05:06:54 51°18.029 2°41.289 306.7 12.5 304 22.8
2008-04-01 05:06:59 51°18.039 2°41.266 306.1 12.5 306 22.7
2008-04-01 05:07:04 51°18.049 2°41.244 306.3 12.5 306 22.5
2008-04-01 05:07:09 51°18.059 2°41.221 306.2 12.5 304 21.9
2008-04-01 05:07:14 51°18.069 2°41.198 305.7 12.5 306 22
2008-04-01 05:07:19 51°18.079 2°41.176 306.2 12.4 305 21.4
2008-04-01 05:07:24 51°18.089 2°41.153 306.2 12.4 305 20.8
2008-04-01 05:07:29 51°18.099 2°41.131 306 12.4 306 20.2
2008-04-01 05:07:34 51°18.109 2°41.108 306 12.4 305 20.4
2008-04-01 05:07:39 51°18.119 2°41.086 305.9 12.5 306 19.9
2008-04-01 05:07:44 51°18.128 2°41.063 306.2 12.5 304 19.7
2008-04-01 05:07:49 51°18.138 2°41.041 306 12.4 305 19.5
2008-04-01 05:07:54 51°18.149 2°41.019 306.2 12.5 306 19.5
2008-04-01 05:07:59 51°18.159 2°40.996 306.9 12.5 306 19
2008-04-01 05:08:04 51°18.169 2°40.974 307 12.4 306 17.7
2008-04-01 05:08:09 51°18.179 2°40.952 307 12.4 306 16.4
2008-04-01 05:08:14 51°18.189 2°40.929 307.1 12.5 305 18
2008-04-01 05:08:19 51°18.199 2°40.907 306.3 12.4 307 18.3
2008-04-01 05:08:24 51°18.21 2°40.885 306.2 12.4 306 17
2008-04-01 05:08:29 51°18.22 2°40.863 306.4 12.4 307 16.3
2008-04-01 05:08:34 51°18.23 2°40.841 306.9 12.4 305 15.6
2008-04-01 05:08:39 51°18.24 2°40.819 306.3 12.4 306 13.5
2008-04-01 05:08:44 51°18.25 2°40.796 306.2 12.4 305 15.4
2008-04-01 05:08:49 51°18.26 2°40.774 306.2 12.4 306 16.8
2008-04-01 05:08:54 51°18.27 2°40.752 306.4 12.5 306 18
2008-04-01 05:08:59 51°18.281 2°40.729 306.8 12.5 306 18.8
2008-04-01 05:09:04 51°18.291 2°40.707 306.7 12.5 305 19.7
2008-04-01 05:09:09 51°18.301 2°40.684 306.2 12.5 305 20.3
2008-04-01 05:09:14 51°18.311 2°40.662 306 12.6 306 18.5
2008-04-01 05:09:19 51°18.321 2°40.639 306.4 12.5 306 15.8
2008-04-01 05:09:24 51°18.331 2°40.617 306.4 12.5 306 16.8
2008-04-01 05:09:29 51°18.341 2°40.595 306.6 12.5 306 17.5
2008-04-01 05:09:34 51°18.351 2°40.572 306.4 12.5 305 18.3
2008-04-01 05:09:39 51°18.361 2°40.55 305.6 12.4 306 18.8
2008-04-01 05:09:44 51°18.371 2°40.527 305.6 12.5 305 18.9
2008-04-01 05:09:49 51°18.381 2°40.505 305.6 12.5 306 16.7
2008-04-01 05:09:54 51°18.391 2°40.482 305.8 12.4 305 15.8
2008-04-01 05:09:59 51°18.402 2°40.46 306.1 12.4 307 16.3
2008-04-01 05:10:04 51°18.412 2°40.438 306.8 12.4 306 16.8
2008-04-01 05:10:09 51°18.422 2°40.416 307.1 12.4 306 17.1
2008-04-01 05:10:14 51°18.432 2°40.394 306.9 12.5 307 16.8
2008-04-01 05:10:19 51°18.442 2°40.371 307.1 12.5 306 16.1
2008-04-01 05:10:24 51°18.452 2°40.349 306.7 12.4 306 14.1
2008-04-01 05:10:29 51°18.462 2°40.327 306.2 12.3 306 11.1
2008-04-01 05:10:34 51°18.472 2°40.305 306.1 12.3 306 13
2008-04-01 05:10:39 51°18.482 2°40.283 306.2 12.4 305 16.3
2008-04-01 05:10:44 51°18.493 2°40.261 306.4 12.5 306 18.9
2008-04-01 05:10:49 51°18.503 2°40.238 306.4 12.5 305 20.7
2008-04-01 05:10:54 51°18.513 2°40.215 305.8 12.5 305 22.2
2008-04-01 05:10:59 51°18.523 2°40.193 305.5 12.6 306 23.2
2008-04-01 05:11:04 51°18.533 2°40.17 305.8 12.6 306 24.1
2008-04-01 05:11:09 51°18.543 2°40.147 305.6 12.6 305 24.5
2008-04-01 05:11:14 51°18.553 2°40.125 305.7 12.6 306 24.6
2008-04-01 05:11:19 51°18.564 2°40.103 306.6 12.6 306 24.5
2008-04-01 05:11:24 51°18.574 2°40.08 306.4 12.5 306 24.5
2008-04-01 05:11:29 51°18.584 2°40.058 306.2 12.5 306 25.1
2008-04-01 05:11:34 51°18.594 2°40.035 306 12.5 305 25
2008-04-01 05:11:39 51°18.604 2°40.013 305.9 12.5 306 24.9
2008-04-01 05:11:44 51°18.615 2°39.991 306.2 12.5 306 25.2
2008-04-01 05:11:49 51°18.625 2°39.968 306.7 12.5 306 25.6
2008-04-01 05:11:54 51°18.635 2°39.946 307 12.5 307 25.3
2008-04-01 05:11:59 51°18.646 2°39.923 307.3 12.6 306 25.6
2008-04-01 05:12:04 51°18.656 2°39.902 306.9 12.5 308 25.6
2008-04-01 05:12:09 51°18.666 2°39.879 307.1 12.5 306 25.9
2008-04-01 05:12:14 51°18.677 2°39.857 306.6 12.5 306 25.4
2008-04-01 05:12:19 51°18.687 2°39.834 306.3 12.5 306 25.6
2008-04-01 05:12:24 51°18.697 2°39.812 306.3 12.5 306 24.9
2008-04-01 05:12:29 51°18.707 2°39.789 306.4 12.5 306 25.1
2008-04-01 05:12:34 51°18.717 2°39.767 306.1 12.5 306 24.9
2008-04-01 05:12:39 51°18.727 2°39.745 306 12.5 306 24.8
2008-04-01 05:12:44 51°18.738 2°39.723 306.2 12.5 307 25
2008-04-01 05:12:49 51°18.748 2°39.7 306.4 12.5 306 25
2008-04-01 05:12:54 51°18.758 2°39.678 306.5 12.5 307 25.1
2008-04-01 05:12:59 51°18.768 2°39.655 306.7 12.5 306 25.1
2008-04-01 05:13:04 51°18.778 2°39.633 306 12.5 306 25
2008-04-01 05:13:09 51°18.788 2°39.611 306 12.5 306 25.2
2008-04-01 05:13:14 51°18.798 2°39.588 305.9 12.4 306 25.3
2008-04-01 05:13:19 51°18.808 2°39.566 305.9 12.4 306 25.4
2008-04-01 05:13:24 51°18.818 2°39.543 305.8 12.5 305 25.4
2008-04-01 05:13:29 51°18.828 2°39.521 305.5 12.5 306 25.3
2008-04-01 05:13:34 51°18.839 2°39.498 305.7 12.5 306 25.4
2008-04-01 05:13:39 51°18.848 2°39.476 306.1 12.4 305 25.4
2008-04-01 05:13:44 51°18.858 2°39.454 306 12.4 306 25.4
2008-04-01 05:13:49 51°18.869 2°39.432 306.2 12.4 306 25.5
2008-04-01 05:13:54 51°18.879 2°39.41 306.4 12.4 306 25.7
2008-04-01 05:13:59 51°18.889 2°39.387 306.5 12.4 306 25.8
2008-04-01 05:14:04 51°18.899 2°39.365 306.6 12.4 306 25.8
2008-04-01 05:14:09 51°18.909 2°39.343 306.7 12.4 306 26
2008-04-01 05:14:14 51°18.918 2°39.32 306.7 12.4 305 26.4
2008-04-01 05:14:19 51°18.929 2°39.298 306 12.4 306 26.6
2008-04-01 05:14:24 51°18.939 2°39.276 306.2 12.4 305 26.7
2008-04-01 05:14:29 51°18.948 2°39.253 306 12.4 305 26.8
2008-04-01 05:14:34 51°18.958 2°39.231 305.7 12.4 306 26.9
2008-04-01 05:14:39 51°18.968 2°39.208 306 12.4 305 27.1
2008-04-01 05:14:44 51°18.978 2°39.186 306.2 12.5 306 27.3
2008-04-01 05:14:49 51°18.989 2°39.164 306.5 12.4 306 27.5
2008-04-01 05:14:54 51°18.999 2°39.141 306.7 12.4 306 27.8
2008-04-01 05:14:59 51°19.009 2°39.119 306.5 12.5 306 27.8
2008-04-01 05:15:04 51°19.019 2°39.097 306.2 12.4 306 27.9
2008-04-01 05:15:09 51°19.029 2°39.074 306.2 12.4 306 28
2008-04-01 05:15:14 51°19.039 2°39.052 306.2 12.4 306 28.2
2008-04-01 05:15:19 51°19.049 2°39.03 306.5 12.4 305 28.2
2008-04-01 05:15:24 51°19.059 2°39.008 306.2 12.4 306 28.6
2008-04-01 05:15:29 51°19.069 2°38.985 305.7 12.4 305 28.5
2008-04-01 05:15:34 51°19.079 2°38.962 305.9 12.4 305 28.6
2008-04-01 05:15:39 51°19.089 2°38.94 306 12.4 305 28.7
2008-04-01 05:15:44 51°19.099 2°38.918 305.9 12.4 305 28.7
2008-04-01 05:15:49 51°19.109 2°38.895 305.9 12.4 305 28.8
2008-04-01 05:15:54 51°19.119 2°38.873 306 12.4 306 28.5
2008-04-01 05:15:59 51°19.128 2°38.85 306.2 12.4 305 28.6
2008-04-01 05:16:04 51°19.139 2°38.828 306.4 12.4 307 28.6
2008-04-01 05:16:09 51°19.149 2°38.806 306.7 12.5 305 28.5
2008-04-01 05:16:14 51°19.159 2°38.783 306.7 12.4 305 28.6
2008-04-01 05:16:19 51°19.169 2°38.761 306.6 12.5 305 28.6
2008-04-01 05:16:24 51°19.179 2°38.738 306.4 12.5 305 28.6
2008-04-01 05:16:29 51°19.189 2°38.716 305.9 12.4 305 28.6
2008-04-01 05:16:34 51°19.199 2°38.694 306.1 12.4 306 28.4
2008-04-01 05:16:39 51°19.209 2°38.671 306 12.4 306 28.4
2008-04-01 05:16:44 51°19.219 2°38.649 306.4 12.4 306 28.4
2008-04-01 05:16:49 51°19.229 2°38.627 306.8 12.4 306 28.4
2008-04-01 05:16:54 51°19.239 2°38.604 306.7 12.4 306 28.1
2008-04-01 05:16:59 51°19.249 2°38.582 306.3 12.4 306 28.1
2008-04-01 05:17:04 51°19.26 2°38.559 306.3 12.4 306 27.8
2008-04-01 05:17:09 51°19.27 2°38.537 306.3 12.4 306 27.5
2008-04-01 05:17:14 51°19.28 2°38.515 306.8 12.4 307 27
2008-04-01 05:17:19 51°19.29 2°38.493 306.9 12.4 306 26.9
2008-04-01 05:17:24 51°19.3 2°38.471 306.7 12.4 306 26.7
2008-04-01 05:17:29 51°19.31 2°38.448 306.4 12.4 306 26.4
2008-04-01 05:17:34 51°19.32 2°38.426 306.6 12.4 306 26.1
2008-04-01 05:17:39 51°19.331 2°38.403 306.4 12.4 305 25.9
2008-04-01 05:17:44 51°19.341 2°38.381 306.2 12.4 305 25.7
2008-04-01 05:17:49 51°19.35 2°38.358 305.5 12.4 305 25.2
2008-04-01 05:17:54 51°19.36 2°38.336 305.5 12.4 305 25.3
2008-04-01 05:17:59 51°19.37 2°38.314 305.6 12.4 306 25
2008-04-01 05:18:04 51°19.38 2°38.292 306.2 12.4 306 24.9
2008-04-01 05:18:09 51°19.39 2°38.269 306.2 12.4 305 23.9
2008-04-01 05:18:14 51°19.401 2°38.247 306 12.4 306 23
2008-04-01 05:18:19 51°19.41 2°38.224 306.2 12.4 305 23.6
2008-04-01 05:18:24 51°19.421 2°38.202 306 12.4 306 23.8
2008-04-01 05:18:29 51°19.431 2°38.18 306.2 12.4 306 23.8
2008-04-01 05:18:34 51°19.441 2°38.158 306.6 12.4 307 23.6
2008-04-01 05:18:39 51°19.451 2°38.136 306.9 12.4 306 23
2008-04-01 05:18:44 51°19.461 2°38.114 306.8 12.4 307 22.1
2008-04-01 05:18:49 51°19.471 2°38.091 306.6 12.4 305 23.2
2008-04-01 05:18:54 51°19.482 2°38.07 306.3 12.4 307 23.2
2008-04-01 05:18:59 51°19.492 2°38.047 306.3 12.4 306 23.4
2008-04-01 05:19:04 51°19.502 2°38.025 306.2 12.4 306 22.8
2008-04-01 05:19:08 51°19.51 2°38.007 306.3 12.4 306 21.6
2008-04-01 05:19:13 51°19.52 2°37.985 306.4 12.4 306 20.7
2008-04-01 05:19:18 51°19.53 2°37.963 306.4 12.4 306 21.8
2008-04-01 05:19:23 51°19.54 2°37.941 306.5 12.4 306 22.3
2008-04-01 05:19:28 51°19.551 2°37.919 306.5 12.4 307 22.5
2008-04-01 05:19:33 51°19.561 2°37.896 306.7 12.4 307 22.4
2008-04-01 05:19:37 51°19.569 2°37.879 307.1 12.4 307 22
2008-04-01 05:19:42 51°19.579 2°37.857 307.2 12.4 306 22.5
2008-04-01 05:19:47 51°19.59 2°37.835 306.8 12.4 306 22.8
2008-04-01 05:19:52 51°19.6 2°37.812 306.5 12.4 306 22.7
2008-04-01 05:19:57 51°19.61 2°37.79 305.9 12.4 306 22.3
2008-04-01 05:20:02 51°19.62 2°37.768 306 12.3 306 20.7
2008-04-01 05:20:07 51°19.63 2°37.746 306.2 12.4 306 20.6
2008-04-01 05:20:12 51°19.64 2°37.724 306.1 12.4 306 21.9
2008-04-01 05:20:16 51°19.648 2°37.706 305.7 12.4 305 22.7
2008-04-01 05:20:21 51°19.658 2°37.684 305.5 12.4 306 23
2008-04-01 05:20:26 51°19.668 2°37.662 306.2 12.4 307 22.5
2008-04-01 05:20:31 51°19.678 2°37.639 306.6 12.4 307 20.5
2008-04-01 05:20:36 51°19.689 2°37.617 307 12.4 307 22.3
2008-04-01 05:20:40 51°19.697 2°37.6 307 12.4 306 22.7
2008-04-01 05:20:45 51°19.707 2°37.578 307 12.4 307 23.1
2008-04-01 05:20:51 51°19.719 2°37.551 306.5 12.4 306 22.9
2008-04-01 05:20:56 51°19.729 2°37.529 306.2 12.4 306 22.7
2008-04-01 05:21:00 51°19.737 2°37.511 306.4 12.4 306 23
2008-04-01 05:21:06 51°19.75 2°37.485 306.6 12.4 307 23.2
2008-04-01 05:21:11 51°19.76 2°37.463 306.3 12.4 306 23.5
2008-04-01 05:21:16 51°19.77 2°37.441 306.2 12.4 307 23
2008-04-01 05:21:20 51°19.778 2°37.423 306.7 12.3 307 22.2
2008-04-01 05:21:25 51°19.788 2°37.401 306.3 12.4 306 21
2008-04-01 05:21:31 51°19.801 2°37.375 306.4 12.3 307 21.1
2008-04-01 05:21:36 51°19.811 2°37.353 306.9 12.3 306 21.9
2008-04-01 05:21:40 51°19.819 2°37.335 307 12.4 308 22.1
2008-04-01 05:21:45 51°19.829 2°37.313 306.8 12.3 306 23
2008-04-01 05:21:50 51°19.839 2°37.292 306.7 12.2 307 23.1
2008-04-01 05:21:56 51°19.851 2°37.266 306.3 12.1 305 22.8
2008-04-01 05:22:01 51°19.861 2°37.244 306 12 306 23.1
2008-04-01 05:22:05 51°19.869 2°37.227 305.7 11.9 305 23
2008-04-01 05:22:11 51°19.88 2°37.201 305.4 11.9 306 21.8
2008-04-01 05:22:16 51°19.89 2°37.18 305.9 11.8 307 21.3
2008-04-01 05:22:21 51°19.899 2°37.159 306 11.8 306 21.7
2008-04-01 05:22:25 51°19.907 2°37.142 306.4 11.8 307 22.4
2008-04-01 05:22:30 51°19.917 2°37.121 306.4 11.8 305 22.7
2008-04-01 05:22:36 51°19.929 2°37.096 306.2 11.8 308 22.9
2008-04-01 05:22:40 51°19.936 2°37.079 306.6 11.8 306 22.6
2008-04-01 05:22:45 51°19.947 2°37.06 308.8 11.7 312 22.7
2008-04-01 05:22:51 51°19.958 2°37.038 310.1 11.1 309 22.6
2008-04-01 05:22:56 51°19.967 2°37.023 311.2 9.5 314 22.5
2008-04-01 05:23:00 51°19.973 2°37.012 312.7 8.5 311 22.7
2008-04-01 05:23:05 51°19.981 2°37 313.3 7.6 316 22.6
2008-04-01 05:23:11 51°19.989 2°36.987 314.6 6.9 315 22.3
2008-04-01 05:23:16 51°19.995 2°36.978 315.7 6.4 319 22.5